.
WxDataArchive / Data Records for 2008-10-03
2008-10-02 October 2008 2008-10-04

Data Records for Friday, 03 October 2008

Time	Temp	Chill	HIndex	Humid	Dewpt	 Wind 	HiWind	WindDir	Rain 	Barom 
-----	----	-----	------	-----	-----	------	------	-------	-----	----- 
00:00	55.3	55.3	55.3	63	42.9	0	2	248	0.00	29.774 
00:05	55.3	55.3	55.3	63	42.9	0	1	248	0.00	29.773 
00:10	55.3	55.3	55.3	63	42.9	0	1	248	0.00	29.774 
00:15	55.3	55.3	55.3	64	43.3	0	1	248	0.00	29.774 
00:20	55.3	55.3	55.3	64	43.3	0	2	248	0.00	29.775 
00:25	55.3	55.3	55.3	64	43.3	0	2	248	0.00	29.775 
00:30	55.3	55.3	55.3	64	43.3	0	1	248	0.00	29.775 
00:35	55.3	55.3	55.3	63	42.9	0	2	248	0.00	29.775 
00:40	55.3	55.3	55.3	64	43.3	0	1	248	0.00	29.775 
00:45	55.3	55.3	55.3	64	43.3	0	4	248	0.00	29.775 
00:50	55.3	55.3	55.3	64	43.3	0	2	248	0.00	29.775 
00:55	55.3	55.3	55.3	64	43.3	0	2	248	0.00	29.775 
01:00	55.3	55.3	55.3	64	43.3	0	1	248	0.00	29.777 
01:05	55.3	55.3	55.3	64	43.3	0	2	248	0.00	29.777 
01:10	55.1	55.1	55.1	64	43.1	0	3	248	0.00	29.780 
01:15	55.1	55.1	55.1	65	43.5	0	1	248	0.00	29.782 
01:20	55.3	55.3	55.3	64	43.3	0	1	248	0.00	29.784 
01:25	55.3	55.3	55.3	64	43.3	0	2	248	0.00	29.784 
01:30	55.3	55.3	55.3	65	43.7	0	2	248	0.00	29.786 
01:35	55.3	55.3	55.3	65	43.7	0	1	248	0.00	29.791 
01:40	55.1	55.1	55.1	66	43.9	0	5	270	0.00	29.800 
01:45	55.0	55.0	55.0	67	44.2	0	1	270	0.00	29.798 
01:50	54.7	54.7	54.7	68	44.3	0	1	270	0.00	29.800 
01:55	54.5	54.5	54.5	68	44.2	0	0	---	0.00	29.802 
02:00	54.4	54.4	54.4	69	44.4	0	1	270	0.00	29.803 
02:05	54.4	54.4	54.4	69	44.4	0	0	---	0.00	29.804 
02:10	54.2	54.2	54.2	70	44.6	0	0	---	0.00	29.807 
02:15	54.1	54.1	54.1	72	45.3	0	1	270	0.00	29.807 
02:20	53.9	53.9	53.9	73	45.4	0	1	270	0.00	29.810 
02:25	53.6	53.6	53.6	75	45.9	0	2	315	0.00	29.811 
02:30	53.3	53.3	53.3	76	45.9	0	2	22	0.00	29.811 
02:35	53.2	53.2	53.2	77	46.2	0	1	22	0.00	29.814 
02:40	52.9	52.9	52.9	78	46.2	0	1	22	0.00	29.819 
02:45	52.8	52.8	52.8	79	46.5	0	1	22	0.00	29.822 
02:50	52.8	52.8	52.8	79	46.5	0	1	22	0.00	29.823 
02:55	52.5	52.5	52.5	78	45.8	0	1	22	0.00	29.821 
03:00	52.5	52.5	52.5	77	45.5	0	1	22	0.00	29.822 
03:05	52.5	52.5	52.5	77	45.5	0	1	22	0.00	29.823 
03:10	52.3	52.3	52.3	77	45.3	0	1	22	0.00	29.824 
03:15	52.2	52.2	52.2	79	45.9	0	1	22	0.00	29.826 
03:20	52.0	52.0	52.0	81	46.4	0	0	---	0.00	29.829 
03:25	51.7	51.7	51.7	83	46.7	0	1	22	0.00	29.825 
03:30	51.4	51.4	51.4	84	46.7	0	0	---	0.00	29.828 
03:35	51.1	51.1	51.1	84	46.4	0	0	---	0.00	29.832 
03:40	51.0	51.0	51.0	86	47.0	0	0	---	0.00	29.837 
03:45	50.8	50.8	50.8	86	46.8	0	0	---	0.00	29.839 
03:50	50.7	50.7	50.7	87	47.0	0	0	---	0.00	29.841 
03:55	50.5	50.5	50.5	88	47.1	0	0	---	0.00	29.841 
04:00	50.5	50.5	50.5	88	47.1	0	0	---	0.00	29.844 
04:05	50.5	50.5	50.5	88	47.1	0	1	22	0.00	29.847 
04:10	50.4	50.4	50.4	88	47.0	0	0	---	0.00	29.845 
04:15	50.4	50.4	50.4	89	47.3	0	0	---	0.00	29.845 
04:20	50.4	50.4	50.4	89	47.3	0	0	---	0.00	29.848 
04:25	50.4	50.4	50.4	89	47.3	0	0	---	0.00	29.856 
04:30	50.4	50.4	50.4	89	47.3	0	1	22	0.00	29.858 
04:35	50.2	50.2	50.2	90	47.4	0	2	22	0.00	29.859 
04:40	50.2	50.2	50.2	90	47.4	0	1	22	0.00	29.859 
04:45	50.2	50.2	50.2	90	47.4	0	1	22	0.00	29.862 
04:50	50.1	50.1	50.1	90	47.3	0	0	---	0.00	29.866 
04:55	49.9	49.9	49.9	89	46.8	0	1	22	0.00	29.865 
05:00	49.9	49.9	49.9	88	46.5	0	0	---	0.00	29.869 
05:05	49.8	49.8	49.8	88	46.4	0	0	---	0.00	29.872 
05:10	49.8	49.8	49.8	88	46.4	0	1	22	0.00	29.874 
05:15	49.8	49.8	49.8	88	46.4	0	1	22	0.00	29.874 
05:20	49.8	49.8	49.8	88	46.4	0	2	45	0.00	29.874 
05:25	49.5	49.5	49.5	87	45.8	0	1	45	0.01	29.873 
05:30	49.5	49.5	49.5	88	46.1	0	1	45	0.00	29.872 
05:35	49.4	49.4	49.4	87	45.7	0	0	---	0.00	29.874 
05:40	49.4	49.4	49.4	88	46.0	0	0	---	0.00	29.877 
05:45	49.4	49.4	49.4	87	45.7	0	0	---	0.00	29.879 
05:50	49.2	49.2	49.2	87	45.5	0	0	---	0.00	29.883 
05:55	49.2	49.2	49.2	87	45.5	0	0	---	0.00	29.884 
06:00	49.2	49.2	49.2	88	45.8	0	0	---	0.00	29.882 
06:05	49.2	49.2	49.2	88	45.8	0	0	---	0.00	29.887 
06:10	49.2	49.2	49.2	89	46.1	0	0	---	0.00	29.889 
06:15	49.2	49.2	49.2	89	46.1	0	0	---	0.00	29.890 
06:20	49.2	49.2	49.2	89	46.1	0	0	---	0.00	29.891 
06:25	49.2	49.2	49.2	90	46.4	0	0	---	0.00	29.898 
06:30	49.2	49.2	49.2	90	46.4	0	0	---	0.00	29.904 
06:35	49.2	49.2	49.2	90	46.4	0	0	---	0.00	29.905 
06:40	49.2	49.2	49.2	90	46.4	0	0	---	0.00	29.906 
06:45	49.2	49.2	49.2	90	46.4	0	0	---	0.00	29.909 
06:50	49.2	49.2	49.2	91	46.7	0	0	---	0.00	29.910 
06:55	49.2	49.2	49.2	91	46.7	0	0	---	0.00	29.911 
07:00	49.2	49.2	49.2	91	46.7	0	0	---	0.00	29.914 
07:05	49.2	49.2	49.2	91	46.7	0	0	---	0.00	29.915 
07:10	49.2	49.2	49.2	91	46.7	0	0	---	0.00	29.918 
07:15	49.2	49.2	49.2	91	46.7	0	0	---	0.00	29.921 
07:20	49.2	49.2	49.2	92	47.0	0	0	---	0.00	29.921 
07:25	49.2	49.2	49.2	92	47.0	0	0	---	0.00	29.922 
07:30	49.1	49.1	49.1	92	46.9	0	0	---	0.00	29.923 
07:35	49.2	49.2	49.2	92	47.0	0	0	---	0.00	29.923 
07:40	49.2	49.2	49.2	92	47.0	0	0	---	0.00	29.922 
07:45	49.2	49.2	49.2	92	47.0	0	0	---	0.00	29.923 
07:50	49.2	49.2	49.2	92	47.0	0	0	---	0.00	29.927 
07:55	49.2	49.2	49.2	92	47.0	0	0	---	0.00	29.929 
08:00	49.2	49.2	49.2	93	47.3	0	0	---	0.00	29.933 
08:05	49.2	49.2	49.2	93	47.3	0	0	---	0.00	29.930 
08:10	49.2	49.2	49.2	93	47.3	0	0	---	0.00	29.937 
08:15	49.4	49.4	49.4	93	47.5	0	0	---	0.00	29.937 
08:20	49.4	49.4	49.4	93	47.5	0	0	---	0.00	29.941 
08:25	49.4	49.4	49.4	93	47.5	0	0	---	0.00	29.944 
08:30	49.4	49.4	49.4	93	47.5	0	0	---	0.00	29.947 
08:35	49.4	49.4	49.4	93	47.5	0	0	---	0.00	29.953 
08:40	49.4	49.4	49.4	93	47.5	0	0	---	0.00	29.954 
08:45	49.4	49.4	49.4	93	47.5	0	0	---	0.00	29.956 
08:50	49.5	49.5	49.5	93	47.6	0	0	---	0.00	29.953 
08:55	49.6	49.6	49.6	93	47.7	0	0	---	0.00	29.952 
09:00	49.8	49.8	49.8	93	47.9	0	0	---	0.00	29.954 
09:05	49.8	49.8	49.8	93	47.9	0	0	---	0.00	29.957 
09:10	49.8	49.8	49.8	92	47.6	0	2	45	0.00	29.961 
09:15	49.6	49.6	49.6	92	47.4	1	3	45	0.00	29.967 
09:20	49.6	49.6	49.6	92	47.4	0	2	45	0.00	29.969 
09:25	49.4	49.4	49.4	91	46.9	1	7	90	0.00	29.970 
09:30	49.2	49.2	49.2	91	46.7	1	5	90	0.00	29.970 
09:35	49.1	49.1	49.1	90	46.3	1	4	90	0.00	29.972 
09:40	48.9	48.9	48.9	89	45.8	1	4	90	0.00	29.976 
09:45	48.8	48.8	48.8	87	45.1	1	5	90	0.00	29.979 
09:50	48.8	48.8	48.8	86	44.8	1	5	90	0.00	29.983 
09:55	48.8	48.8	48.8	86	44.8	1	4	90	0.00	29.986 
10:00	48.9	48.9	48.9	86	44.9	0	3	90	0.00	29.988 
10:05	49.1	49.1	49.1	86	45.1	1	2	90	0.00	29.986 
10:10	49.2	49.2	49.2	85	44.9	1	3	90	0.00	29.985 
10:15	49.5	49.5	49.5	85	45.2	1	3	90	0.00	29.985 
10:20	49.6	49.6	49.6	84	45.0	0	2	90	0.00	29.987 
10:25	49.8	49.8	49.8	84	45.2	0	3	90	0.00	29.990 
10:30	50.1	50.1	50.1	85	45.8	1	3	90	0.00	29.992 
10:35	50.2	50.2	50.2	84	45.6	1	3	90	0.00	29.995 
10:40	50.2	50.2	50.2	82	44.9	1	3	90	0.00	29.991 
10:45	50.2	50.2	50.2	81	44.6	1	5	90	0.00	29.998 
10:50	50.4	50.4	50.4	81	44.8	1	3	90	0.00	29.999 
10:55	50.4	50.4	50.4	81	44.8	1	3	90	0.00	29.998 
11:00	50.5	50.5	50.5	81	44.9	1	4	90	0.00	29.998 
11:05	50.5	50.5	50.5	79	44.2	1	3	90	0.00	29.998 
11:10	50.8	50.8	50.8	80	44.9	1	2	90	0.00	29.999 
11:15	51.1	51.1	51.1	79	44.8	0	2	90	0.00	30.000 
11:20	51.6	51.6	51.6	81	46.0	0	2	90	0.00	30.000 
11:25	51.7	51.7	51.7	80	45.7	1	2	90	0.00	30.000 
11:30	52.0	52.0	52.0	80	46.0	0	2	90	0.00	30.000 
11:35	52.0	52.0	52.0	77	45.0	1	3	90	0.00	30.002 
11:40	52.2	52.2	52.2	77	45.2	1	3	90	0.00	30.003 
11:45	52.2	52.2	52.2	78	45.5	0	1	90	0.00	30.006 
11:50	52.2	52.2	52.2	75	44.5	0	2	90	0.00	30.006 
11:55	52.3	52.3	52.3	76	45.0	0	3	90	0.00	30.006 
12:00	52.3	52.3	52.3	74	44.3	0	1	90	0.00	30.012 
12:05	52.5	52.5	52.5	74	44.5	0	1	90	0.00	30.010 
12:10	52.6	52.6	52.6	74	44.6	1	4	90	0.00	30.010 
12:15	52.8	52.8	52.8	75	45.1	0	2	90	0.00	30.008 
12:20	52.9	52.9	52.9	73	44.5	1	3	90	0.00	30.007 
12:25	53.3	53.3	53.3	74	45.2	0	3	90	0.00	30.011 
12:30	53.5	53.5	53.5	72	44.7	1	3	90	0.00	30.012 
12:35	53.6	53.6	53.6	72	44.8	0	1	90	0.00	30.009 
12:40	53.9	53.9	53.9	72	45.1	1	2	90	0.00	30.011 
12:45	53.9	53.9	53.9	71	44.7	0	3	90	0.00	30.011 
12:50	53.9	53.9	53.9	70	44.3	0	1	90	0.00	30.011 
12:55	53.9	53.9	53.9	70	44.3	0	3	90	0.00	30.009 
13:00	53.9	53.9	53.9	69	44.0	1	2	90	0.00	30.007 
13:05	54.1	54.1	54.1	69	44.2	0	1	90	0.00	30.006 
13:10	54.2	54.2	54.2	67	43.5	0	2	90	0.00	30.006 
13:15	54.4	54.4	54.4	68	44.1	0	2	90	0.00	30.002 
13:20	54.4	54.4	54.4	65	42.9	0	1	90	0.00	30.003 
13:25	54.5	54.5	54.5	67	43.8	0	2	90	0.00	30.003 
13:30	54.5	54.5	54.5	68	44.2	0	1	90	0.00	30.000 
13:35	54.5	54.5	54.5	67	43.8	0	1	90	0.00	29.999 
13:40	54.5	54.5	54.5	68	44.2	0	0	---	0.00	30.000 
13:45	54.4	54.4	54.4	68	44.1	0	2	90	0.00	30.001 
13:50	54.2	54.2	54.2	69	44.3	0	2	90	0.00	30.001 
13:55	53.8	53.8	53.8	69	43.9	0	2	90	0.00	30.001 
14:00	53.5	53.5	53.5	69	43.6	0	1	90	0.00	30.000 
14:05	53.6	53.6	53.6	71	44.4	0	1	90	0.00	30.001 
14:10	53.5	53.5	53.5	69	43.6	0	2	90	0.00	30.001 
14:15	53.3	53.3	53.3	70	43.8	0	1	90	0.00	30.002 
14:20	53.3	53.3	53.3	70	43.8	0	1	90	0.00	30.001 
14:25	53.5	53.5	53.5	69	43.6	0	2	90	0.00	30.001 
14:30	53.5	53.5	53.5	68	43.2	0	1	90	0.00	30.000 
14:35	53.6	53.6	53.6	69	43.7	0	2	90	0.00	30.000 
14:40	53.5	53.5	53.5	69	43.6	0	1	90	0.00	30.001 
14:45	53.5	53.5	53.5	68	43.2	0	3	112	0.00	30.000 
14:50	53.5	53.5	53.5	68	43.2	0	1	112	0.00	30.000 
14:55	53.5	53.5	53.5	69	43.6	0	0	---	0.00	30.000 
15:00	53.3	53.3	53.3	69	43.4	0	0	---	0.00	30.000 
15:05	53.3	53.3	53.3	70	43.8	0	0	---	0.00	30.001 
15:10	53.2	53.2	53.2	70	43.7	0	0	---	0.00	30.000 
15:15	53.2	53.2	53.2	71	44.0	0	0	---	0.00	30.000 
15:20	53.2	53.2	53.2	70	43.7	0	0	---	0.00	30.001 
15:25	53.2	53.2	53.2	71	44.0	0	0	---	0.00	30.001 
15:30	53.2	53.2	53.2	71	44.0	0	0	---	0.00	29.999 
15:35	53.2	53.2	53.2	70	43.7	0	0	---	0.00	29.997 
15:40	53.3	53.3	53.3	69	43.4	0	0	---	0.00	29.994 
15:45	53.5	53.5	53.5	71	44.3	0	0	---	0.00	29.995 
15:50	53.6	53.6	53.6	69	43.7	0	1	112	0.00	29.995 
15:55	53.6	53.6	53.6	70	44.1	0	1	112	0.00	29.994 
16:00	53.8	53.8	53.8	68	43.5	0	1	112	0.00	29.996 
16:05	53.8	53.8	53.8	68	43.5	0	0	---	0.00	29.996 
16:10	53.9	53.9	53.9	71	44.7	0	0	---	0.00	29.995 
16:15	54.1	54.1	54.1	69	44.2	0	0	---	0.00	29.995 
16:20	54.1	54.1	54.1	67	43.4	0	0	---	0.00	29.996 
16:25	54.1	54.1	54.1	68	43.8	0	1	112	0.00	29.998 
16:30	54.1	54.1	54.1	67	43.4	0	1	112	0.00	29.998 
16:35	54.2	54.2	54.2	67	43.5	0	1	112	0.00	29.999 
16:40	54.2	54.2	54.2	68	43.9	0	1	112	0.00	29.999 
16:45	54.2	54.2	54.2	67	43.5	0	1	112	0.00	30.000 
16:50	54.1	54.1	54.1	68	43.8	0	1	112	0.00	30.000 
16:55	54.1	54.1	54.1	69	44.2	0	0	---	0.00	30.001 
17:00	54.1	54.1	54.1	69	44.2	0	1	112	0.00	30.002 
17:05	54.1	54.1	54.1	70	44.5	0	0	---	0.00	30.005 
17:10	53.9	53.9	53.9	70	44.3	0	0	---	0.00	30.004 
17:15	53.9	53.9	53.9	70	44.3	0	0	---	0.00	30.005 
17:20	53.9	53.9	53.9	69	44.0	0	0	---	0.00	30.009 
17:25	53.8	53.8	53.8	69	43.9	0	0	---	0.00	30.011 
17:30	53.8	53.8	53.8	71	44.6	0	0	---	0.00	30.015 
17:35	53.6	53.6	53.6	69	43.7	0	0	---	0.00	30.015 
17:40	53.6	53.6	53.6	70	44.1	0	0	---	0.00	30.018 
17:45	53.6	53.6	53.6	71	44.4	0	0	---	0.00	30.017 
17:50	53.5	53.5	53.5	73	45.1	0	0	---	0.00	30.018 
17:55	53.3	53.3	53.3	72	44.5	0	0	---	0.00	30.020 
18:00	53.3	53.3	53.3	72	44.5	0	0	---	0.00	30.021 
18:05	53.2	53.2	53.2	72	44.4	0	0	---	0.00	30.021 
18:10	53.1	53.1	53.1	72	44.3	0	0	---	0.00	30.024 
18:15	53.1	53.1	53.1	72	44.3	0	0	---	0.00	30.026 
18:20	52.9	52.9	52.9	74	44.8	0	0	---	0.00	30.026 
18:25	52.9	52.9	52.9	76	45.5	0	0	---	0.00	30.026 
18:30	52.9	52.9	52.9	77	45.9	0	0	---	0.00	30.027 
18:35	52.8	52.8	52.8	78	46.1	0	0	---	0.00	30.028 
18:40	52.6	52.6	52.6	78	45.9	0	0	---	0.00	30.031 
18:45	52.3	52.3	52.3	78	45.6	0	0	---	0.00	30.032 
18:50	52.2	52.2	52.2	79	45.9	0	0	---	0.00	30.036 
18:55	52.2	52.2	52.2	79	45.9	0	0	---	0.00	30.035 
19:00	52.0	52.0	52.0	80	46.0	0	0	---	0.00	30.036 
19:05	52.0	52.0	52.0	80	46.0	0	0	---	0.00	30.036 
19:10	52.0	52.0	52.0	81	46.4	0	0	---	0.00	30.037 
19:15	51.9	51.9	51.9	82	46.6	0	0	---	0.00	30.036 
19:20	51.9	51.9	51.9	82	46.6	0	0	---	0.00	30.037 
19:25	51.7	51.7	51.7	82	46.4	0	0	---	0.00	30.039 
19:30	51.7	51.7	51.7	83	46.7	0	0	---	0.00	30.040 
19:35	51.6	51.6	51.6	83	46.6	0	0	---	0.00	30.043 
19:40	51.6	51.6	51.6	83	46.6	0	0	---	0.00	30.043 
19:45	51.4	51.4	51.4	83	46.4	0	0	---	0.00	30.049 
19:50	51.4	51.4	51.4	83	46.4	0	0	---	0.00	30.051 
19:55	51.3	51.3	51.3	84	46.6	0	0	---	0.00	30.050 
20:00	51.3	51.3	51.3	84	46.6	0	0	---	0.00	30.052 
20:05	51.1	51.1	51.1	84	46.4	0	0	---	0.00	30.054 
20:10	51.0	51.0	51.0	84	46.3	0	0	---	0.00	30.054 
20:15	51.0	51.0	51.0	84	46.3	0	0	---	0.00	30.054 
20:20	50.7	50.7	50.7	84	46.0	0	0	---	0.00	30.056 
20:25	50.5	50.5	50.5	84	45.8	0	0	---	0.00	30.061 
20:30	50.2	50.2	50.2	84	45.6	0	0	---	0.00	30.065 
20:35	49.9	49.9	49.9	84	45.3	0	0	---	0.00	30.067 
20:40	49.5	49.5	49.5	84	44.9	0	0	---	0.00	30.067 
20:45	49.1	49.1	49.1	85	44.8	0	0	---	0.00	30.067 
20:50	48.8	48.8	48.8	86	44.8	0	0	---	0.00	30.068 
20:55	48.5	48.5	48.5	87	44.8	0	0	---	0.00	30.068 
21:00	48.2	48.2	48.2	87	44.5	0	0	---	0.00	30.069 
21:05	48.0	48.0	48.0	88	44.6	0	0	---	0.00	30.072 
21:10	47.7	47.7	47.7	88	44.3	0	0	---	0.00	30.071 
21:15	47.6	47.6	47.6	88	44.2	0	0	---	0.00	30.073 
21:20	47.3	47.3	47.3	88	43.9	0	0	---	0.00	30.076 
21:25	47.0	47.0	47.0	88	43.6	0	0	---	0.00	30.080 
21:30	46.7	46.7	46.7	87	43.0	0	0	---	0.00	30.080 
21:35	46.4	46.4	46.4	87	42.7	0	0	---	0.00	30.080 
21:40	46.1	46.1	46.1	86	42.1	0	0	---	0.00	30.085 
21:45	45.8	45.8	45.8	85	41.6	0	0	---	0.00	30.088 
21:50	45.5	45.5	45.5	84	41.0	0	0	---	0.00	30.089 
21:55	45.2	45.2	45.2	84	40.7	0	0	---	0.00	30.090 
22:00	44.9	44.9	44.9	83	40.1	0	0	---	0.00	30.091 
22:05	44.6	44.6	44.6	81	39.1	0	0	---	0.00	30.091 
22:10	44.5	44.5	44.5	81	39.0	0	0	---	0.00	30.094 
22:15	44.2	44.2	44.2	81	38.7	0	0	---	0.00	30.096 
22:20	44.1	44.1	44.1	80	38.3	0	0	---	0.00	30.095 
22:25	43.9	43.9	43.9	80	38.1	0	0	---	0.00	30.096 
22:30	43.6	43.6	43.6	81	38.2	0	0	---	0.00	30.097 
22:35	43.3	43.3	43.3	81	37.9	0	0	---	0.00	30.098 
22:40	43.2	43.2	43.2	82	38.1	0	0	---	0.00	30.098 
22:45	42.9	42.9	42.9	83	38.1	0	0	---	0.00	30.102 
22:50	42.8	42.8	42.8	83	38.0	0	0	---	0.00	30.102 
22:55	42.6	42.6	42.6	83	37.8	0	0	---	0.00	30.100 
23:00	42.3	42.3	42.3	84	37.8	0	0	---	0.00	30.102 
23:05	42.2	42.2	42.2	84	37.7	0	0	---	0.00	30.101 
23:10	41.9	41.9	41.9	84	37.4	0	0	---	0.00	30.102 
23:15	41.8	41.8	41.8	84	37.3	0	0	---	0.00	30.104 
23:20	41.6	41.6	41.6	85	37.4	0	0	---	0.00	30.105 
23:25	41.3	41.3	41.3	85	37.1	0	0	---	0.00	30.105 
23:30	41.1	41.1	41.1	85	36.9	0	0	---	0.00	30.108 
23:35	40.9	40.9	40.9	86	37.0	0	0	---	0.00	30.108 
23:40	40.8	40.8	40.8	86	36.9	0	0	---	0.00	30.107 
23:45	40.6	40.6	40.6	86	36.7	0	0	---	0.00	30.109 
23:50	40.5	40.5	40.5	87	36.9	0	0	---	0.00	30.109 
23:55	40.3	40.3	40.3	87	36.7	0	0	---	0.00	30.110 

CoCoRaHS
IN-AL-39
A2 Web Hosting
Creative Commons License
GoDaddy
Look for:

loaded 2017-10-17 00:41:19 • last modified 2010-11-18 10:43:29
Privacy PolicyDisclaimer
• wx.awcolley.com is powered by PmWiki v.2002016 •
• all content (unless otherwise noted) © 2017 A W Colley